createdAt,value
2019-04-01T00:00:57.712Z,8.33
2019-04-01T00:03:25.937Z,8.60
2019-04-01T00:05:54.133Z,7.50
2019-04-01T00:08:22.324Z,6.73
2019-04-01T00:10:50.499Z,4.07
2019-04-01T00:13:18.722Z,5.87
2019-04-01T00:15:46.968Z,10.60
2019-04-01T00:18:15.181Z,6.17
2019-04-01T00:20:43.401Z,7.83
2019-04-01T00:23:11.689Z,4.87
2019-04-01T00:25:40.176Z,6.87
2019-04-01T00:28:08.377Z,5.13
2019-04-01T00:30:36.557Z,7.73
2019-04-01T00:33:04.741Z,11.93
2019-04-01T00:35:32.925Z,8.23
2019-04-01T00:38:01.103Z,5.40
2019-04-01T00:40:29.308Z,7.80
2019-04-01T00:43:07.895Z,6.87
2019-04-01T00:45:37.753Z,7.13
2019-04-01T00:48:05.926Z,7.40
2019-04-01T00:50:34.142Z,7.90
2019-04-01T00:53:02.349Z,5.90
2019-04-01T00:55:30.552Z,4.50
2019-04-01T00:57:58.785Z,11.70
2019-04-01T01:00:27.072Z,6.63
2019-04-01T01:02:55.269Z,8.47
2019-04-01T01:05:23.443Z,5.90
2019-04-01T01:07:51.653Z,8.40
2019-04-01T01:10:19.824Z,5.60
2019-04-01T01:12:48.042Z,4.83
2019-04-01T01:15:16.240Z,4.90
2019-04-01T01:17:44.441Z,5.73
2019-04-01T01:20:12.612Z,10.63
2019-04-01T01:22:40.823Z,6.37
2019-04-01T01:25:09.265Z,6.63
2019-04-01T01:27:37.468Z,13.43
2019-04-01T01:30:08.599Z,9.60
2019-04-01T01:32:36.802Z,5.43
2019-04-01T01:35:05.049Z,7.67
2019-04-01T01:37:33.233Z,6.33
2019-04-01T01:40:01.435Z,9.57
2019-04-01T01:42:29.619Z,6.00
2019-04-01T01:44:57.800Z,4.80
2019-04-01T01:47:26.000Z,7.40
2019-04-01T01:49:54.171Z,7.73
2019-04-01T01:52:22.384Z,7.57
2019-04-01T01:54:50.585Z,8.67
2019-04-01T01:57:18.797Z,8.97
2019-04-01T01:59:46.993Z,5.50
2019-04-01T02:02:15.178Z,8.77
2019-04-01T02:04:43.344Z,8.20
2019-04-01T02:07:11.565Z,6.63
2019-04-01T02:09:39.762Z,9.20
2019-04-01T02:12:07.940Z,5.63
2019-04-01T02:14:36.123Z,9.27
2019-04-01T02:17:04.352Z,11.10
2019-04-01T02:19:32.544Z,8.80
2019-04-01T02:22:00.750Z,10.70
2019-04-01T02:24:28.923Z,8.05
2019-04-01T02:26:57.101Z,7.03
2019-04-01T02:29:25.283Z,9.90
2019-04-01T02:31:54.452Z,7.53
2019-04-01T02:34:22.659Z,4.30
2019-04-01T02:36:50.855Z,7.85
2019-04-01T02:39:19.070Z,7.47
2019-04-01T02:41:47.342Z,11.27
2019-04-01T02:44:15.532Z,8.43
2019-04-01T02:46:43.742Z,5.73
2019-04-01T02:49:11.973Z,6.70
2019-04-01T02:51:40.245Z,6.23
2019-04-01T02:54:08.458Z,13.70
2019-04-01T02:56:36.738Z,5.93
2019-04-01T02:59:04.981Z,6.17
2019-04-01T03:01:33.191Z,15.80
2019-04-01T03:04:01.475Z,10.97
2019-04-01T03:06:29.685Z,8.07
2019-04-01T03:08:57.894Z,12.33
2019-04-01T03:11:26.188Z,7.23
2019-04-01T03:13:54.351Z,7.17
2019-04-01T03:16:22.545Z,10.37
2019-04-01T03:18:50.780Z,10.50
2019-04-01T03:21:18.950Z,8.37
2019-04-01T03:23:47.186Z,9.70
2019-04-01T03:26:15.415Z,6.80
2019-04-01T03:28:44.580Z,9.23
2019-04-01T03:31:13.716Z,7.33
2019-04-01T03:33:41.958Z,7.70
2019-04-01T03:36:10.129Z,7.97
2019-04-01T03:38:38.429Z,7.93
2019-04-01T03:41:06.626Z,5.90
2019-04-01T03:43:34.829Z,13.63
2019-04-01T03:46:03.053Z,7.43
2019-04-01T03:48:31.233Z,6.70
2019-04-01T03:50:59.420Z,7.30
2019-04-01T03:53:27.604Z,9.57
2019-04-01T03:55:55.855Z,11.30
2019-04-01T03:58:24.081Z,9.30
2019-04-01T04:00:52.252Z,9.40
2019-04-01T04:03:20.459Z,12.30
2019-04-01T04:05:48.650Z,11.97
2019-04-01T04:08:16.848Z,5.50
2019-04-01T04:10:45.118Z,10.40
2019-04-01T04:13:13.339Z,12.10
2019-04-01T04:15:41.554Z,7.17
2019-04-01T04:18:09.757Z,7.37
2019-04-01T04:20:37.934Z,8.10
2019-04-01T04:23:06.121Z,9.73
2019-04-01T04:25:34.312Z,15.53
2019-04-01T04:28:02.889Z,7.60
2019-04-01T04:30:31.101Z,8.37
2019-04-01T04:32:59.306Z,14.17
2019-04-01T04:35:27.498Z,10.00
2019-04-01T04:37:55.679Z,14.10
2019-04-01T04:40:23.860Z,8.30
2019-04-01T04:42:52.094Z,11.77
2019-04-01T04:45:20.280Z,11.60
2019-04-01T04:47:48.466Z,10.50
2019-04-01T04:50:16.660Z,10.43
2019-04-01T04:52:44.877Z,10.17
2019-04-01T04:55:13.051Z,11.60
2019-04-01T04:57:41.260Z,9.70
2019-04-01T05:00:09.466Z,13.57
2019-04-01T05:02:37.655Z,12.20
2019-04-01T05:05:06.215Z,12.77
2019-04-01T05:07:34.408Z,15.40
2019-04-01T05:10:02.613Z,11.17
2019-04-01T05:12:30.820Z,19.73
2019-04-01T05:14:58.995Z,14.57
2019-04-01T05:17:27.216Z,14.73
2019-04-01T05:19:55.404Z,11.17
2019-04-01T05:22:24.553Z,12.50
2019-04-01T05:24:53.345Z,14.60
2019-04-01T05:27:23.067Z,12.90
2019-04-01T05:29:52.793Z,15.17
2019-04-01T05:32:21.376Z,13.83
2019-04-01T05:34:50.064Z,13.70
2019-04-01T05:37:18.310Z,21.50
2019-04-01T05:39:46.505Z,10.50
2019-04-01T05:42:14.718Z,18.40
2019-04-01T05:44:42.920Z,14.47
2019-04-01T05:47:11.144Z,11.03
2019-04-01T05:49:39.420Z,17.07
2019-04-01T05:52:07.976Z,10.53
2019-04-01T05:54:36.186Z,11.60
2019-04-01T05:57:04.401Z,12.43
2019-04-01T05:59:32.575Z,8.13
2019-04-01T06:02:00.781Z,8.40
2019-04-01T06:04:28.984Z,13.13
2019-04-01T06:06:57.202Z,12.97
2019-04-01T06:09:25.372Z,13.63
2019-04-01T06:11:53.624Z,21.67
2019-04-01T06:14:21.840Z,11.70
2019-04-01T06:16:50.041Z,13.07
2019-04-01T06:19:18.328Z,20.47
2019-04-01T06:21:46.780Z,18.65
2019-04-01T06:24:15.053Z,12.33
2019-04-01T06:26:43.262Z,11.23
2019-04-01T06:29:11.435Z,10.90
2019-04-01T06:31:39.661Z,12.85
2019-04-01T06:34:07.831Z,11.80
2019-04-01T06:36:38.723Z,14.10
2019-04-01T06:39:06.288Z,13.65
2019-04-01T06:41:34.488Z,17.03
2019-04-01T06:44:02.752Z,11.03
2019-04-01T06:46:30.953Z,8.47
2019-04-01T06:48:59.181Z,11.80
2019-04-01T06:51:27.355Z,18.10
2019-04-01T06:53:55.633Z,12.17
2019-04-01T06:56:23.822Z,13.60
2019-04-01T06:58:52.097Z,8.50
2019-04-01T07:01:20.334Z,11.30
2019-04-01T07:03:48.511Z,12.33
2019-04-01T07:06:16.729Z,11.97
2019-04-01T07:08:45.001Z,16.43
2019-04-01T07:11:13.172Z,10.50
2019-04-01T07:13:41.360Z,11.80
2019-04-01T07:16:15.734Z,10.40
2019-04-01T07:18:39.427Z,8.33
2019-04-01T07:21:07.645Z,9.33
2019-04-01T07:23:35.809Z,8.67
2019-04-01T07:26:04.030Z,9.03
2019-04-01T07:28:32.211Z,7.27
2019-04-01T07:31:00.425Z,5.93
2019-04-01T07:33:28.596Z,5.90
2019-04-01T07:35:56.778Z,13.30
2019-04-01T07:38:24.993Z,8.90
2019-04-01T07:40:53.167Z,7.50
2019-04-01T07:43:21.401Z,5.33
2019-04-01T07:45:49.731Z,7.80
2019-04-01T07:48:17.941Z,6.93
2019-04-01T07:50:46.260Z,8.20
2019-04-01T07:53:14.465Z,7.10
2019-04-01T07:55:42.707Z,6.90
2019-04-01T07:58:10.886Z,6.60
2019-04-01T08:00:39.063Z,11.00
2019-04-01T08:03:07.252Z,12.80
2019-04-01T08:05:35.508Z,5.27
2019-04-01T08:08:03.680Z,9.35
2019-04-01T08:10:32.822Z,4.50
2019-04-01T08:13:01.036Z,5.47
2019-04-01T08:15:29.284Z,5.83
2019-04-01T08:17:57.464Z,4.43
2019-04-01T08:20:27.029Z,6.00
2019-04-01T08:22:55.212Z,10.00
2019-04-01T08:25:23.393Z,7.90
2019-04-01T08:27:51.609Z,3.73
2019-04-01T08:30:19.853Z,8.30
2019-04-01T08:32:48.033Z,5.43
2019-04-01T08:35:16.235Z,14.00
2019-04-01T08:37:44.423Z,7.07
2019-04-01T08:40:12.887Z,5.60
2019-04-01T08:42:41.118Z,10.27
2019-04-01T08:45:10.569Z,4.83
2019-04-01T08:50:06.871Z,4.50
2019-04-01T08:52:35.353Z,5.00
2019-04-01T08:55:05.248Z,7.80
2019-04-01T08:57:33.454Z,2.57
2019-04-01T09:00:01.717Z,5.70
2019-04-01T09:02:29.955Z,4.50
2019-04-01T09:04:58.131Z,5.23
2019-04-01T09:07:26.350Z,6.77
2019-04-01T09:09:54.522Z,6.87
2019-04-01T09:14:50.129Z,4.35
2019-04-01T11:42:20.880Z,4.00
2019-04-01T11:44:49.564Z,3.50
2019-04-01T11:52:15.387Z,3.30
2019-04-01T11:54:42.555Z,5.10
2019-04-01T11:57:11.102Z,3.90
2019-04-01T11:59:39.597Z,4.80
2019-04-01T12:02:07.895Z,6.13
2019-04-01T12:04:36.177Z,5.43
2019-04-01T12:07:04.366Z,2.77
2019-04-01T12:09:32.568Z,4.30
2019-04-01T12:12:00.810Z,4.07
2019-04-01T12:14:29.052Z,2.53
2019-04-01T12:16:57.224Z,3.17
2019-04-01T12:21:52.792Z,7.15
2019-04-01T12:24:21.019Z,5.70
2019-04-01T12:26:49.297Z,4.10
2019-04-01T12:34:12.234Z,5.07
2019-04-01T12:36:40.446Z,7.30
2019-04-01T12:39:08.794Z,4.03
2019-04-01T12:41:36.964Z,4.43
2019-04-01T12:44:05.172Z,5.83
2019-04-01T12:46:33.418Z,4.90
2019-04-01T12:49:01.652Z,3.20
2019-04-01T12:51:29.846Z,3.70
2019-04-01T12:53:58.120Z,4.93
2019-04-01T12:56:26.392Z,4.45
2019-04-01T13:45:44.763Z,2.97
2019-04-01T13:48:12.972Z,3.23
2019-04-01T13:50:41.246Z,4.67
2019-04-01T13:53:09.544Z,4.33
2019-04-01T13:55:38.280Z,2.80
2019-04-01T13:58:06.837Z,5.37
2019-04-01T14:27:42.338Z,3.03
2019-04-01T14:30:10.581Z,3.00
2019-04-01T14:32:38.797Z,4.37
2019-04-01T14:35:07.150Z,3.40
2019-04-01T14:37:35.385Z,2.43
2019-04-01T14:40:04.625Z,3.43
2019-04-01T14:42:32.890Z,3.00
2019-04-01T14:45:01.156Z,2.60
2019-04-01T14:47:29.424Z,4.57
2019-04-01T14:49:57.626Z,2.93
2019-04-01T14:52:32.515Z,4.17
2019-04-01T15:12:07.693Z,3.20
2019-04-01T15:14:35.861Z,3.40
2019-04-01T15:19:31.449Z,4.97
2019-04-01T15:21:59.667Z,4.00
2019-04-01T15:26:55.379Z,4.70
2019-04-01T15:34:18.611Z,3.35
2019-04-01T15:36:47.861Z,4.70
2019-04-01T15:39:16.432Z,4.50
2019-04-01T15:51:37.272Z,3.30
2019-04-01T15:54:05.456Z,3.57
2019-04-01T15:56:34.211Z,4.07
2019-04-01T15:59:02.408Z,5.60
2019-04-01T16:01:30.617Z,2.87
2019-04-01T16:03:58.829Z,3.50
2019-04-01T16:06:26.995Z,3.53
2019-04-01T16:08:55.213Z,3.37
2019-04-01T16:28:37.757Z,4.33
2019-04-01T16:31:05.943Z,6.90
2019-04-01T16:38:28.915Z,3.80
2019-04-01T16:40:57.083Z,3.17
2019-04-01T16:43:25.300Z,4.50
2019-04-01T16:50:49.848Z,5.00
2019-04-01T16:53:18.050Z,5.90
2019-04-01T16:55:46.256Z,5.17
2019-04-01T16:58:14.510Z,8.90
2019-04-01T17:00:42.756Z,9.53
2019-04-01T17:03:13.557Z,6.70
2019-04-01T17:05:40.845Z,4.50
2019-04-01T17:08:10.058Z,5.97
2019-04-01T17:10:38.460Z,6.60
2019-04-01T17:13:07.321Z,5.90
2019-04-01T17:15:35.776Z,5.30
2019-04-01T17:18:03.948Z,6.60
2019-04-01T17:32:50.156Z,5.60
2019-04-01T17:40:16.786Z,4.00
2019-04-01T17:42:43.372Z,2.70
2019-04-01T17:45:22.125Z,7.10
2019-04-01T17:47:50.321Z,5.70
2019-04-01T17:50:18.520Z,6.50
2019-04-01T17:52:46.797Z,4.03
2019-04-01T17:55:15.035Z,4.40
2019-04-01T17:57:43.273Z,2.70
2019-04-01T18:02:38.902Z,7.90
2019-04-01T18:07:36.087Z,6.00
2019-04-01T18:10:05.386Z,8.40
2019-04-01T18:12:33.591Z,4.50
2019-04-01T18:15:01.885Z,5.73
2019-04-01T18:17:30.140Z,6.03
2019-04-01T18:19:58.322Z,5.60
2019-04-01T18:22:26.545Z,10.60
2019-04-01T18:24:54.712Z,3.93
2019-04-01T18:27:22.933Z,3.30
2019-04-01T18:29:51.107Z,3.70
2019-04-01T18:32:19.319Z,6.10
2019-04-01T18:34:47.504Z,4.43
2019-04-01T18:37:15.722Z,4.50
2019-04-01T18:39:48.411Z,5.50
2019-04-01T18:42:13.833Z,4.00
2019-04-01T18:44:42.042Z,4.90
2019-04-01T18:47:10.249Z,5.70
2019-04-01T18:49:38.444Z,4.47
2019-04-01T18:52:06.618Z,3.97
2019-04-01T18:54:34.786Z,4.67
2019-04-01T18:57:03.766Z,4.37
2019-04-01T18:59:32.113Z,4.77
2019-04-01T19:02:00.333Z,5.77
2019-04-01T19:04:28.496Z,6.50
2019-04-01T19:06:56.685Z,4.30
2019-04-01T19:09:24.872Z,5.70
2019-04-01T19:12:03.222Z,5.20
2019-04-01T19:16:50.283Z,6.90
2019-04-01T20:20:45.090Z,3.40
2019-04-01T20:23:13.296Z,7.30
2019-04-01T20:25:41.479Z,7.30
2019-04-01T20:28:09.680Z,6.17
2019-04-01T20:30:38.140Z,4.70
2019-04-01T20:33:16.976Z,5.87
2019-04-01T20:35:36.597Z,9.73
2019-04-01T20:38:04.790Z,6.77
2019-04-01T20:40:33.008Z,6.10
2019-04-01T20:43:01.206Z,5.10
2019-04-01T20:45:29.412Z,5.43
2019-04-01T20:47:57.616Z,6.70
2019-04-01T20:50:25.791Z,7.90
2019-04-01T20:52:54.010Z,5.57
2019-04-01T20:55:22.172Z,6.33
2019-04-01T20:57:50.402Z,5.77
2019-04-01T21:00:19.005Z,8.37
2019-04-01T21:02:47.204Z,4.17
2019-04-01T21:05:15.850Z,5.60
2019-04-01T21:07:44.062Z,5.20
2019-04-01T21:10:13.181Z,5.83
2019-04-01T21:12:42.281Z,6.47
2019-04-01T21:15:10.535Z,5.07
2019-04-01T21:17:38.729Z,6.10
2019-04-01T21:20:07.068Z,7.10
2019-04-01T21:22:36.675Z,6.80
2019-04-01T21:25:06.486Z,4.50
2019-04-01T21:27:34.650Z,7.67
2019-04-01T21:30:03.899Z,7.40
2019-04-01T21:32:32.077Z,13.37
2019-04-01T21:35:00.264Z,5.20
2019-04-01T21:37:28.466Z,8.80
2019-04-01T21:39:56.669Z,8.80
2019-04-01T21:42:24.868Z,7.30
2019-04-01T21:44:53.052Z,7.87
2019-04-01T21:47:21.233Z,6.13
2019-04-01T21:49:49.412Z,6.20
2019-04-01T21:52:17.657Z,8.30
2019-04-01T22:16:53.872Z,6.75
2019-04-01T22:46:24.898Z,7.47
2019-04-01T23:11:01.822Z,9.57
2019-04-01T23:30:41.688Z,9.13
2019-04-01T23:33:09.872Z,8.40
2019-04-01T23:35:38.072Z,8.13
2019-04-01T23:38:07.108Z,8.33
2019-04-01T23:40:35.439Z,10.00
2019-04-01T23:43:03.630Z,8.83
